createdAt,value
2022-08-14T00:04:55.339Z,12.48
2022-08-14T00:07:22.976Z,9.48
2022-08-14T00:10:01.390Z,10.13
2022-08-14T00:12:42.970Z,9.02
2022-08-14T00:15:21.856Z,9.98
2022-08-14T00:17:53.067Z,9.45
2022-08-14T00:20:36.016Z,9.32
2022-08-14T00:25:53.794Z,9.35
2022-08-14T00:28:32.546Z,10.20
2022-08-14T00:31:03.531Z,7.70
2022-08-14T00:33:39.276Z,9.10
2022-08-14T00:36:39.226Z,12.07
2022-08-14T00:39:17.806Z,8.70
2022-08-14T00:41:48.020Z,8.57
2022-08-14T00:44:21.560Z,9.43
2022-08-14T00:46:58.928Z,10.73
2022-08-14T00:49:28.698Z,11.90
2022-08-14T00:51:59.956Z,9.57
2022-08-14T00:54:27.587Z,8.70
2022-08-14T00:56:56.113Z,11.02
2022-08-14T00:59:29.746Z,18.77
2022-08-14T01:02:00.685Z,9.80
2022-08-14T01:04:38.431Z,10.13
2022-08-14T01:07:22.902Z,9.27
2022-08-14T01:09:54.006Z,9.50
2022-08-14T01:12:27.086Z,10.20
2022-08-14T01:15:02.960Z,9.25
2022-08-14T01:17:52.222Z,9.98
2022-08-14T01:20:40.962Z,9.43
2022-08-14T01:23:16.232Z,9.05
2022-08-14T01:25:52.374Z,9.95
2022-08-14T01:28:47.067Z,8.70
2022-08-14T01:31:17.112Z,8.32
2022-08-14T01:35:15.557Z,9.57
2022-08-14T01:36:39.306Z,8.68
2022-08-14T01:39:18.597Z,8.82
2022-08-14T01:44:32.350Z,10.25
2022-08-14T01:47:19.587Z,10.35
2022-08-14T01:49:59.586Z,10.70
2022-08-14T01:52:59.428Z,10.68
2022-08-14T01:55:32.211Z,11.75
2022-08-14T01:58:18.608Z,9.48
2022-08-14T02:00:55.165Z,10.82
2022-08-14T02:03:30.979Z,12.50
2022-08-14T02:06:03.530Z,12.27
2022-08-14T02:08:53.368Z,11.98
2022-08-14T02:11:25.182Z,12.55
2022-08-14T02:14:07.919Z,14.32
2022-08-14T02:16:39.495Z,13.35
2022-08-14T02:19:17.653Z,12.52
2022-08-14T02:21:50.537Z,11.80
2022-08-14T02:24:39.618Z,11.77
2022-08-14T02:28:21.922Z,11.63
2022-08-14T02:30:02.203Z,11.10
2022-08-14T02:32:36.831Z,12.43
2022-08-14T02:35:17.835Z,12.18
2022-08-14T02:37:49.534Z,11.35
2022-08-14T02:40:19.916Z,11.50
2022-08-14T02:42:55.270Z,12.32
2022-08-14T02:45:33.237Z,11.50
2022-08-14T02:48:10.340Z,11.43
2022-08-14T02:50:55.034Z,12.38
2022-08-14T02:53:22.798Z,11.82
2022-08-14T02:55:50.457Z,13.32
2022-08-14T02:58:30.775Z,12.25
2022-08-14T03:01:01.210Z,13.00
2022-08-14T03:03:31.723Z,13.90
2022-08-14T03:06:09.127Z,13.45
2022-08-14T03:08:39.948Z,13.25
2022-08-14T03:11:14.428Z,14.73
2022-08-14T03:13:47.476Z,15.43
2022-08-14T03:16:26.668Z,14.40
2022-08-14T03:21:28.261Z,14.82
2022-08-14T03:24:21.645Z,15.43
2022-08-14T03:26:57.537Z,16.23
2022-08-14T03:29:27.677Z,14.90
2022-08-14T03:31:57.125Z,15.23
2022-08-14T03:34:47.948Z,15.98
2022-08-14T03:37:52.101Z,14.25
2022-08-14T03:40:02.895Z,15.20
2022-08-14T03:42:35.921Z,14.60
2022-08-14T03:45:27.291Z,15.38
2022-08-14T03:47:58.952Z,14.90
2022-08-14T03:50:31.602Z,14.98
2022-08-14T03:53:02.924Z,16.65
2022-08-14T03:55:31.403Z,15.57
2022-08-14T03:58:00.430Z,16.55
2022-08-14T04:03:19.575Z,17.20
2022-08-14T04:05:51.598Z,17.73
2022-08-14T04:08:29.901Z,17.13
2022-08-14T04:11:00.858Z,16.85
2022-08-14T04:13:34.450Z,17.17
2022-08-14T04:16:10.066Z,16.52
2022-08-14T04:18:46.433Z,16.67
2022-08-14T04:21:16.616Z,17.27
2022-08-14T04:23:49.167Z,19.45
2022-08-14T04:26:42.753Z,20.40
2022-08-14T04:29:15.319Z,19.15
2022-08-14T04:33:01.231Z,19.70
2022-08-14T04:34:35.129Z,17.55
2022-08-14T04:37:25.505Z,18.45
2022-08-14T04:40:13.681Z,18.85
2022-08-14T04:43:01.610Z,19.75
2022-08-14T04:45:36.412Z,20.33
2022-08-14T04:48:39.480Z,19.90
2022-08-14T04:51:07.659Z,21.10
2022-08-14T04:53:40.900Z,19.40
2022-08-14T04:56:31.066Z,20.58
2022-08-14T04:59:10.006Z,19.38
2022-08-14T05:01:45.225Z,18.85
2022-08-14T05:04:21.103Z,18.08
2022-08-14T05:06:55.158Z,16.15
2022-08-14T05:09:24.548Z,16.85
2022-08-14T05:13:13.234Z,15.65
2022-08-14T05:14:55.267Z,16.60
2022-08-14T05:17:34.753Z,15.30
2022-08-14T05:23:01.384Z,16.88
2022-08-14T05:25:31.914Z,15.15
2022-08-14T05:28:23.403Z,14.40
2022-08-14T05:30:57.510Z,14.80
2022-08-14T05:33:28.471Z,18.25
2022-08-14T05:36:01.319Z,21.20
2022-08-14T05:38:39.450Z,15.90
2022-08-14T05:41:12.856Z,13.67
2022-08-14T05:43:42.424Z,15.15
2022-08-14T05:46:18.444Z,15.75
2022-08-14T05:48:57.323Z,16.73
2022-08-14T05:54:00.089Z,15.38
2022-08-14T05:56:29.828Z,15.25
2022-08-14T05:58:57.448Z,15.40
2022-08-14T06:01:31.297Z,14.38
2022-08-14T06:03:59.703Z,14.75
2022-08-14T06:06:27.745Z,11.32
2022-08-14T06:08:55.373Z,12.43
2022-08-14T06:11:23.934Z,11.90
2022-08-14T06:13:58.741Z,11.93
2022-08-14T06:16:26.635Z,11.50
2022-08-14T06:18:54.152Z,12.27
2022-08-14T06:21:27.030Z,11.20
2022-08-14T06:23:55.075Z,11.00
2022-08-14T06:26:22.745Z,12.20
2022-08-14T06:28:58.702Z,12.43
2022-08-14T06:31:29.281Z,11.95
2022-08-14T06:36:46.191Z,11.27
2022-08-14T06:39:13.854Z,11.73
2022-08-14T06:41:58.708Z,11.82
2022-08-14T06:44:32.268Z,11.63
2022-08-14T06:47:03.002Z,11.50
2022-08-14T06:49:43.481Z,10.95
2022-08-14T06:52:15.357Z,11.88
2022-08-14T06:54:45.642Z,11.68
2022-08-14T06:57:13.780Z,11.32
2022-08-14T06:59:42.343Z,11.53
2022-08-14T07:02:29.806Z,11.82
2022-08-14T07:05:22.767Z,9.88
2022-08-14T07:07:51.915Z,10.65
2022-08-14T07:10:22.144Z,11.68
2022-08-14T07:13:01.518Z,10.43
2022-08-14T07:15:39.940Z,10.45
2022-08-14T07:18:12.226Z,10.48
2022-08-14T07:20:42.151Z,11.82
2022-08-14T07:23:19.665Z,10.98
2022-08-14T07:25:51.927Z,10.65
2022-08-14T07:28:26.525Z,9.70
2022-08-14T07:31:04.180Z,9.90
2022-08-14T07:33:41.859Z,10.15
2022-08-14T07:36:26.421Z,10.50
2022-08-14T07:38:56.006Z,10.07
2022-08-14T07:41:23.991Z,11.30
2022-08-14T07:43:55.428Z,9.93
2022-08-14T07:46:28.553Z,9.75
2022-08-14T07:48:59.541Z,10.43
2022-08-14T07:51:33.967Z,10.50
2022-08-14T07:54:11.152Z,10.40
2022-08-14T07:56:47.935Z,10.95
2022-08-14T07:59:18.820Z,11.27
2022-08-14T08:01:48.029Z,10.40
2022-08-14T08:04:29.478Z,11.20
2022-08-14T08:07:03.487Z,10.48
2022-08-14T08:09:36.151Z,11.23
2022-08-14T08:12:09.255Z,10.95
2022-08-14T08:14:55.708Z,9.30
2022-08-14T08:17:25.663Z,11.52
2022-08-14T08:19:53.459Z,9.85
2022-08-14T08:22:22.069Z,9.32
2022-08-14T08:24:50.237Z,8.95
2022-08-14T08:29:51.486Z,8.25
2022-08-14T08:32:19.990Z,9.73
2022-08-14T08:34:49.254Z,8.95
2022-08-14T08:37:17.131Z,9.18
2022-08-14T08:40:01.618Z,10.25
2022-08-14T08:42:38.210Z,9.68
2022-08-14T08:45:11.811Z,9.77
2022-08-14T08:47:40.885Z,10.98
2022-08-14T08:50:31.582Z,9.40
2022-08-14T08:53:07.125Z,8.75
2022-08-14T08:55:43.907Z,9.88
2022-08-14T08:58:16.572Z,9.45
2022-08-14T09:00:54.143Z,10.35
2022-08-14T09:03:28.627Z,10.15
2022-08-14T09:06:03.905Z,12.93
2022-08-14T09:08:36.966Z,10.27
2022-08-14T09:11:19.307Z,11.48
2022-08-14T09:13:54.150Z,10.15
2022-08-14T09:16:26.030Z,10.98
2022-08-14T09:18:55.220Z,11.77
2022-08-14T09:21:24.155Z,9.95
2022-08-14T09:24:28.647Z,9.55
2022-08-14T09:26:49.449Z,8.50
2022-08-14T09:29:20.119Z,9.82
2022-08-14T09:32:03.275Z,8.57
2022-08-14T09:35:08.541Z,9.73
2022-08-14T09:38:15.443Z,10.18
2022-08-14T09:41:27.386Z,11.05
2022-08-14T09:44:20.897Z,13.38
2022-08-14T09:46:58.556Z,9.25
2022-08-14T09:49:40.075Z,10.05
2022-08-14T09:52:32.819Z,10.40
2022-08-14T09:55:02.657Z,14.25
2022-08-14T09:57:31.783Z,11.82
2022-08-14T10:00:30.112Z,10.98
2022-08-14T10:03:05.260Z,12.30
2022-08-14T10:05:39.210Z,9.55
2022-08-14T10:08:26.414Z,10.80
2022-08-14T10:11:01.587Z,9.93
2022-08-14T10:13:52.464Z,10.90
2022-08-14T10:16:21.868Z,10.70
2022-08-14T10:19:10.734Z,10.18
2022-08-14T10:23:11.070Z,10.20
2022-08-14T10:24:40.207Z,10.90
2022-08-14T10:27:26.721Z,7.05
2022-08-14T10:30:01.151Z,10.77
2022-08-14T10:32:41.845Z,10.50
2022-08-14T10:35:14.709Z,11.73
2022-08-14T10:37:51.448Z,10.30
2022-08-14T10:40:43.773Z,9.32
2022-08-14T10:43:22.745Z,9.85
2022-08-14T10:49:00.218Z,14.60
2022-08-14T10:51:34.353Z,9.75
2022-08-14T10:54:26.106Z,10.38
2022-08-14T10:57:18.761Z,9.93
2022-08-14T10:59:51.937Z,10.20
2022-08-14T11:02:50.251Z,8.68
2022-08-14T11:05:27.087Z,7.90
2022-08-14T11:07:56.851Z,10.52
2022-08-14T11:10:46.774Z,10.20
2022-08-14T11:13:30.676Z,9.13
2022-08-14T11:16:01.839Z,7.90
2022-08-14T11:18:37.081Z,8.07
2022-08-14T11:21:09.751Z,7.45
2022-08-14T11:23:43.826Z,7.55
2022-08-14T11:26:19.035Z,7.03
2022-08-14T11:28:49.719Z,6.97
2022-08-14T11:31:23.946Z,6.93
2022-08-14T11:33:59.404Z,6.93
2022-08-14T11:36:35.308Z,10.32
2022-08-14T11:39:34.864Z,6.70
2022-08-14T11:42:55.377Z,7.72
2022-08-14T11:45:04.449Z,10.65
2022-08-14T11:47:43.901Z,7.80
2022-08-14T11:50:36.056Z,9.90
2022-08-14T11:53:07.789Z,5.85
2022-08-14T11:55:39.538Z,5.50
2022-08-14T11:58:11.062Z,6.10
2022-08-14T12:00:57.428Z,5.38
2022-08-14T12:04:07.773Z,5.35
2022-08-14T12:06:52.417Z,4.90
2022-08-14T12:09:38.036Z,4.32
2022-08-14T12:12:35.845Z,4.75
2022-08-14T12:15:06.845Z,4.40
2022-08-14T12:17:50.699Z,7.82
2022-08-14T12:20:30.117Z,4.50
2022-08-14T12:23:08.028Z,4.10
2022-08-14T12:25:36.704Z,5.20
2022-08-14T12:28:26.993Z,9.25
2022-08-14T12:30:59.838Z,4.35
2022-08-14T12:33:34.118Z,4.83
2022-08-14T12:36:10.546Z,3.90
2022-08-14T12:38:44.341Z,4.43
2022-08-14T12:41:21.354Z,4.38
2022-08-14T12:43:56.933Z,4.82
2022-08-14T12:46:33.889Z,4.53
2022-08-14T12:49:11.791Z,5.40
2022-08-14T12:51:59.306Z,4.90
2022-08-14T12:54:29.176Z,4.32
2022-08-14T12:57:14.646Z,4.60
2022-08-14T12:59:47.472Z,7.32
2022-08-14T13:02:26.189Z,4.88
2022-08-14T13:04:58.557Z,4.38
2022-08-14T13:07:32.642Z,4.28
2022-08-14T13:10:45.674Z,4.60
2022-08-14T13:13:12.555Z,4.75
2022-08-14T13:15:43.966Z,4.78
2022-08-14T13:18:15.591Z,8.80
2022-08-14T13:20:51.425Z,4.57
2022-08-14T13:23:31.680Z,4.75
2022-08-14T13:26:01.574Z,4.75
2022-08-14T13:28:34.279Z,4.72
2022-08-14T13:31:11.777Z,5.10
2022-08-14T13:33:41.150Z,5.05
2022-08-14T13:36:24.564Z,4.43
2022-08-14T13:39:00.735Z,6.78
2022-08-14T13:41:34.544Z,4.15
2022-08-14T13:44:04.985Z,6.18
2022-08-14T13:46:36.174Z,6.05
2022-08-14T13:49:10.653Z,3.60
2022-08-14T13:51:53.026Z,3.58
2022-08-14T13:54:22.656Z,3.67
2022-08-14T13:56:51.251Z,4.53
2022-08-14T13:59:20.512Z,3.70
2022-08-14T14:02:08.059Z,7.22
2022-08-14T14:04:46.322Z,3.53
2022-08-14T14:07:21.819Z,4.57
2022-08-14T14:09:55.886Z,3.97
2022-08-14T14:12:36.753Z,7.53
2022-08-14T14:15:18.077Z,4.18
2022-08-14T14:17:51.070Z,2.92
2022-08-14T14:20:35.504Z,3.15
2022-08-14T14:23:11.818Z,2.45
2022-08-14T14:25:51.282Z,4.30
2022-08-14T14:28:31.937Z,3.15
2022-08-14T14:31:06.766Z,2.80
2022-08-14T14:33:52.095Z,4.72
2022-08-14T14:36:24.285Z,2.90
2022-08-14T14:39:01.585Z,5.38
2022-08-14T14:41:38.212Z,2.65
2022-08-14T14:44:09.179Z,5.07
2022-08-14T14:46:42.049Z,2.10
2022-08-14T14:49:14.370Z,3.65
2022-08-14T14:51:51.051Z,2.85
2022-08-14T14:54:31.135Z,3.00
2022-08-14T14:57:04.063Z,6.85
2022-08-14T14:59:38.856Z,3.03
2022-08-14T15:02:09.103Z,2.95
2022-08-14T15:04:43.866Z,2.72
2022-08-14T15:07:12.957Z,3.45
2022-08-14T15:09:41.017Z,2.30
2022-08-14T15:12:34.448Z,2.58
2022-08-14T15:15:08.057Z,2.40
2022-08-14T15:17:41.636Z,3.28
2022-08-14T15:20:17.315Z,3.55
2022-08-14T15:23:00.927Z,3.70
2022-08-14T15:25:36.445Z,3.10
2022-08-14T15:28:06.338Z,2.40
2022-08-14T15:30:33.822Z,9.60
2022-08-14T15:33:01.581Z,3.00
2022-08-14T15:35:34.005Z,4.78
2022-08-14T15:38:17.540Z,2.47
2022-08-14T15:40:51.696Z,3.15
2022-08-14T15:43:27.358Z,2.50
2022-08-14T15:46:00.417Z,9.43
2022-08-14T15:48:30.467Z,3.13
2022-08-14T15:50:59.577Z,5.20
2022-08-14T15:53:31.643Z,2.30
2022-08-14T15:56:20.874Z,2.75
2022-08-14T15:59:10.458Z,2.53
2022-08-14T16:01:54.630Z,2.72
2022-08-14T16:04:23.965Z,3.03
2022-08-14T16:09:24.019Z,2.75
2022-08-14T16:14:22.635Z,2.33
2022-08-14T16:17:00.185Z,2.28
2022-08-14T16:19:43.941Z,2.63
2022-08-14T16:22:58.757Z,5.05
2022-08-14T16:25:05.290Z,2.33
2022-08-14T16:27:41.205Z,2.83
2022-08-14T16:33:06.855Z,2.60
2022-08-14T16:35:42.546Z,2.30
2022-08-14T16:41:17.453Z,4.88
2022-08-14T16:43:46.390Z,2.38
2022-08-14T16:46:22.252Z,2.38
2022-08-14T16:48:57.857Z,5.75
2022-08-14T16:51:34.916Z,3.47
2022-08-14T16:54:20.907Z,5.53
2022-08-14T16:57:14.000Z,3.08
2022-08-14T16:59:52.849Z,2.97
2022-08-14T17:02:43.395Z,2.95
2022-08-14T17:05:18.272Z,3.95
2022-08-14T17:08:32.343Z,3.30
2022-08-14T17:10:52.189Z,4.05
2022-08-14T17:13:58.041Z,3.45
2022-08-14T17:16:24.555Z,3.58
2022-08-14T17:19:00.910Z,3.38
2022-08-14T17:21:40.909Z,3.22
2022-08-14T17:24:57.382Z,3.60
2022-08-14T17:35:57.453Z,5.32
2022-08-14T17:38:39.093Z,5.00
2022-08-14T17:41:27.329Z,3.83
2022-08-14T17:44:12.627Z,10.88
2022-08-14T17:46:50.043Z,4.22
2022-08-14T17:49:27.201Z,5.10
2022-08-14T17:52:07.722Z,4.07
2022-08-14T17:54:52.719Z,4.70
2022-08-14T17:57:28.520Z,4.57
2022-08-14T17:59:59.413Z,3.75
2022-08-14T18:02:30.930Z,6.40
2022-08-14T18:05:03.184Z,4.88
2022-08-14T18:08:00.481Z,4.63
2022-08-14T18:13:10.633Z,10.15
2022-08-14T18:15:43.256Z,3.88
2022-08-14T18:18:19.470Z,5.40
2022-08-14T18:21:40.673Z,5.40
2022-08-14T18:23:42.572Z,7.72
2022-08-14T18:26:36.030Z,4.43
2022-08-14T18:29:00.447Z,4.63
2022-08-14T18:31:42.131Z,5.93
2022-08-14T18:34:31.613Z,5.95
2022-08-14T18:37:17.072Z,6.57
2022-08-14T18:40:01.732Z,7.82
2022-08-14T18:42:32.994Z,5.68
2022-08-14T18:45:15.481Z,5.10
2022-08-14T18:50:46.182Z,6.65
2022-08-14T18:53:15.242Z,8.63
2022-08-14T18:55:53.666Z,7.07
2022-08-14T18:58:45.316Z,6.97
2022-08-14T19:01:25.988Z,8.15
2022-08-14T19:03:54.773Z,6.95
2022-08-14T19:06:40.204Z,6.50
2022-08-14T19:09:28.990Z,9.35
2022-08-14T19:11:57.355Z,6.80
2022-08-14T19:14:47.561Z,8.40
2022-08-14T19:17:43.291Z,8.70
2022-08-14T19:20:58.211Z,8.50
2022-08-14T19:23:43.167Z,8.75
2022-08-14T19:26:34.694Z,8.20
2022-08-14T19:29:37.514Z,8.52
2022-08-14T19:32:36.822Z,9.02
2022-08-14T19:35:48.607Z,9.68
2022-08-14T19:38:45.037Z,9.02
2022-08-14T19:41:25.082Z,10.23
2022-08-14T19:44:15.692Z,10.35
2022-08-14T19:47:01.914Z,7.57
2022-08-14T19:50:09.075Z,9.38
2022-08-14T19:52:38.932Z,8.98
2022-08-14T19:55:19.827Z,10.20
2022-08-14T19:57:57.927Z,9.48
2022-08-14T20:00:29.141Z,7.90
2022-08-14T20:03:10.603Z,9.02
2022-08-14T20:05:45.534Z,9.73
2022-08-14T20:10:58.885Z,9.30
2022-08-14T20:11:20.688Z,13.38
2022-08-14T20:14:20.900Z,10.00
2022-08-14T20:17:01.953Z,14.73
2022-08-14T20:19:37.888Z,9.70
2022-08-14T20:22:37.580Z,7.97
2022-08-14T20:25:23.080Z,11.13
2022-08-14T20:27:59.345Z,11.52
2022-08-14T20:30:34.991Z,10.13
2022-08-14T20:33:11.437Z,9.00
2022-08-14T20:35:39.322Z,8.98
2022-08-14T20:38:29.847Z,9.18
2022-08-14T20:41:10.558Z,9.55
2022-08-14T20:46:38.735Z,9.80
2022-08-14T20:49:19.336Z,9.80
2022-08-14T20:51:58.719Z,9.80
2022-08-14T20:54:34.305Z,9.98
2022-08-14T20:57:14.188Z,9.73
2022-08-14T20:59:46.602Z,11.60
2022-08-14T21:02:34.483Z,10.73
2022-08-14T21:05:16.676Z,10.73
2022-08-14T21:07:51.169Z,10.35
2022-08-14T21:10:33.852Z,11.13
2022-08-14T21:13:26.142Z,13.27
2022-08-14T21:16:34.461Z,10.98
2022-08-14T21:19:04.742Z,10.20
2022-08-14T21:21:41.632Z,10.80
2022-08-14T21:24:38.378Z,10.40
2022-08-14T21:27:12.398Z,9.73
2022-08-14T21:29:53.757Z,12.85
2022-08-14T21:32:47.381Z,9.77
2022-08-14T21:35:24.413Z,12.57
2022-08-14T21:37:53.831Z,11.30
2022-08-14T21:43:20.114Z,10.63
2022-08-14T21:45:53.288Z,11.38
2022-08-14T21:48:32.266Z,11.93
2022-08-14T21:51:54.963Z,13.75
2022-08-14T21:53:59.991Z,11.30
2022-08-14T21:56:38.665Z,10.10
2022-08-14T21:59:22.586Z,10.02
2022-08-14T22:02:00.078Z,9.55
2022-08-14T22:04:40.022Z,11.80
2022-08-14T22:07:17.359Z,10.07
2022-08-14T22:09:55.025Z,10.02
2022-08-14T22:12:57.727Z,10.18
2022-08-14T22:15:16.459Z,12.20
2022-08-14T22:17:44.851Z,9.68
2022-08-14T22:20:20.803Z,8.98
2022-08-14T22:22:48.585Z,10.17
2022-08-14T22:25:32.957Z,9.13
2022-08-14T22:28:09.919Z,9.02
2022-08-14T22:30:39.064Z,9.88
2022-08-14T22:33:10.154Z,9.43
2022-08-14T22:35:42.699Z,9.52
2022-08-14T22:38:37.805Z,11.43
2022-08-14T22:41:25.011Z,11.98
2022-08-14T22:43:51.076Z,13.82
2022-08-14T22:46:20.446Z,10.23
2022-08-14T22:48:49.420Z,11.00
2022-08-14T22:51:21.595Z,10.35
2022-08-14T22:53:53.094Z,12.05
2022-08-14T22:56:30.071Z,8.77
2022-08-14T22:59:01.710Z,7.53
2022-08-14T23:01:56.425Z,7.88
2022-08-14T23:04:35.477Z,7.93
2022-08-14T23:07:22.994Z,9.27
2022-08-14T23:09:57.477Z,8.77
2022-08-14T23:12:31.818Z,9.23
2022-08-14T23:15:03.998Z,9.18
2022-08-14T23:17:39.459Z,9.07
2022-08-14T23:20:18.905Z,12.05
2022-08-14T23:22:51.912Z,9.00
2022-08-14T23:25:56.649Z,8.40
2022-08-14T23:28:33.836Z,8.63
2022-08-14T23:31:12.060Z,8.35
2022-08-14T23:33:52.025Z,8.95
2022-08-14T23:36:31.604Z,8.90
2022-08-14T23:39:00.451Z,10.15
2022-08-14T23:41:46.444Z,10.18
2022-08-14T23:44:15.881Z,10.13
2022-08-14T23:46:44.193Z,8.73
2022-08-14T23:49:12.330Z,8.67
2022-08-14T23:51:40.161Z,8.20
2022-08-14T23:54:48.740Z,13.70
2022-08-14T23:57:02.719Z,12.88
2022-08-14T23:59:32.369Z,9.77
